sensor_id;sensor_type;location;lat;lon;timestamp;P1;durP1;ratioP1;P2;durP2;ratioP2
11582;SDS011;34299;50.820;4.548;2023-05-07T00:01:04;8.77;;;4.90;;
11582;SDS011;34299;50.820;4.548;2023-05-07T00:03:31;6.43;;;4.87;;
11582;SDS011;34299;50.820;4.548;2023-05-07T00:05:59;8.03;;;5.23;;
11582;SDS011;34299;50.820;4.548;2023-05-07T00:08:26;7.77;;;4.40;;
11582;SDS011;34299;50.820;4.548;2023-05-07T00:10:53;9.30;;;5.83;;
11582;SDS011;34299;50.820;4.548;2023-05-07T00:13:20;10.20;;;4.53;;
11582;SDS011;34299;50.820;4.548;2023-05-07T00:15:47;7.60;;;4.23;;
11582;SDS011;34299;50.820;4.548;2023-05-07T00:18:16;6.87;;;3.90;;
11582;SDS011;34299;50.820;4.548;2023-05-07T00:20:46;8.23;;;3.90;;
11582;SDS011;34299;50.820;4.548;2023-05-07T00:23:13;7.67;;;4.87;;
11582;SDS011;34299;50.820;4.548;2023-05-07T00:25:40;4.83;;;4.00;;
11582;SDS011;34299;50.820;4.548;2023-05-07T00:28:07;6.10;;;3.83;;
11582;SDS011;34299;50.820;4.548;2023-05-07T00:30:34;5.17;;;3.40;;
11582;SDS011;34299;50.820;4.548;2023-05-07T00:33:02;5.07;;;3.70;;
11582;SDS011;34299;50.820;4.548;2023-05-07T00:35:30;4.27;;;3.17;;
11582;SDS011;34299;50.820;4.548;2023-05-07T00:37:58;6.27;;;3.63;;
11582;SDS011;34299;50.820;4.548;2023-05-07T00:40:25;6.00;;;3.60;;
11582;SDS011;34299;50.820;4.548;2023-05-07T00:42:52;7.03;;;3.43;;
11582;SDS011;34299;50.820;4.548;2023-05-07T00:45:23;7.00;;;3.87;;
11582;SDS011;34299;50.820;4.548;2023-05-07T00:47:53;6.23;;;3.33;;
11582;SDS011;34299;50.820;4.548;2023-05-07T00:50:21;4.83;;;3.60;;
11582;SDS011;34299;50.820;4.548;2023-05-07T00:52:50;4.97;;;3.23;;
11582;SDS011;34299;50.820;4.548;2023-05-07T00:55:17;4.50;;;3.90;;
11582;SDS011;34299;50.820;4.548;2023-05-07T00:57:45;5.73;;;3.73;;
11582;SDS011;34299;50.820;4.548;2023-05-07T01:00:12;4.03;;;3.63;;
11582;SDS011;34299;50.820;4.548;2023-05-07T01:02:40;5.17;;;4.27;;
11582;SDS011;34299;50.820;4.548;2023-05-07T01:05:08;7.57;;;3.90;;
11582;SDS011;34299;50.820;4.548;2023-05-07T01:07:36;7.67;;;4.00;;
11582;SDS011;34299;50.820;4.548;2023-05-07T01:10:07;8.30;;;4.33;;
11582;SDS011;34299;50.820;4.548;2023-05-07T01:12:35;6.80;;;4.13;;
11582;SDS011;34299;50.820;4.548;2023-05-07T01:15:04;6.40;;;4.33;;
11582;SDS011;34299;50.820;4.548;2023-05-07T01:17:32;8.43;;;3.97;;
11582;SDS011;34299;50.820;4.548;2023-05-07T01:20:01;7.23;;;3.83;;
11582;SDS011;34299;50.820;4.548;2023-05-07T01:22:31;9.33;;;4.17;;
11582;SDS011;34299;50.820;4.548;2023-05-07T01:24:59;5.47;;;4.20;;
11582;SDS011;34299;50.820;4.548;2023-05-07T01:27:26;4.97;;;3.83;;
11582;SDS011;34299;50.820;4.548;2023-05-07T01:29:54;10.27;;;5.83;;
11582;SDS011;34299;50.820;4.548;2023-05-07T01:32:23;8.10;;;4.17;;
11582;SDS011;34299;50.820;4.548;2023-05-07T01:34:51;6.97;;;4.10;;
11582;SDS011;34299;50.820;4.548;2023-05-07T01:37:19;6.10;;;4.30;;
11582;SDS011;34299;50.820;4.548;2023-05-07T01:39:48;6.77;;;4.43;;
11582;SDS011;34299;50.820;4.548;2023-05-07T01:42:15;8.73;;;4.00;;
11582;SDS011;34299;50.820;4.548;2023-05-07T01:44:43;7.43;;;4.40;;
11582;SDS011;34299;50.820;4.548;2023-05-07T01:47:10;7.27;;;4.17;;
11582;SDS011;34299;50.820;4.548;2023-05-07T01:49:38;6.03;;;3.87;;
11582;SDS011;34299;50.820;4.548;2023-05-07T01:52:05;8.27;;;5.00;;
11582;SDS011;34299;50.820;4.548;2023-05-07T01:54:32;7.20;;;4.53;;
11582;SDS011;34299;50.820;4.548;2023-05-07T01:57:01;7.40;;;4.13;;
11582;SDS011;34299;50.820;4.548;2023-05-07T01:59:28;8.37;;;4.30;;
11582;SDS011;34299;50.820;4.548;2023-05-07T02:01:55;6.90;;;4.27;;
11582;SDS011;34299;50.820;4.548;2023-05-07T02:04:22;10.40;;;4.37;;
11582;SDS011;34299;50.820;4.548;2023-05-07T02:06:50;6.50;;;4.23;;
11582;SDS011;34299;50.820;4.548;2023-05-07T02:09:17;7.70;;;4.47;;
11582;SDS011;34299;50.820;4.548;2023-05-07T02:11:45;5.17;;;3.40;;
11582;SDS011;34299;50.820;4.548;2023-05-07T02:14:13;5.57;;;3.43;;
11582;SDS011;34299;50.820;4.548;2023-05-07T02:16:40;5.43;;;3.63;;
11582;SDS011;34299;50.820;4.548;2023-05-07T02:19:08;5.67;;;4.40;;
11582;SDS011;34299;50.820;4.548;2023-05-07T02:21:35;5.63;;;4.27;;
11582;SDS011;34299;50.820;4.548;2023-05-07T02:24:02;6.00;;;4.07;;
11582;SDS011;34299;50.820;4.548;2023-05-07T02:26:32;6.00;;;4.47;;
11582;SDS011;34299;50.820;4.548;2023-05-07T02:28:59;6.37;;;4.30;;
11582;SDS011;34299;50.820;4.548;2023-05-07T02:31:27;8.63;;;4.23;;
11582;SDS011;34299;50.820;4.548;2023-05-07T02:33:55;7.07;;;4.57;;
11582;SDS011;34299;50.820;4.548;2023-05-07T02:36:22;6.00;;;3.60;;
11582;SDS011;34299;50.820;4.548;2023-05-07T02:38:49;9.03;;;4.00;;
11582;SDS011;34299;50.820;4.548;2023-05-07T02:41:16;7.60;;;3.90;;
11582;SDS011;34299;50.820;4.548;2023-05-07T02:43:43;6.83;;;3.87;;
11582;SDS011;34299;50.820;4.548;2023-05-07T02:46:11;6.73;;;3.93;;
11582;SDS011;34299;50.820;4.548;2023-05-07T02:48:39;9.07;;;4.40;;
11582;SDS011;34299;50.820;4.548;2023-05-07T02:51:06;5.70;;;3.70;;
11582;SDS011;34299;50.820;4.548;2023-05-07T02:53:34;5.70;;;3.70;;
11582;SDS011;34299;50.820;4.548;2023-05-07T02:56:01;8.47;;;4.20;;
11582;SDS011;34299;50.820;4.548;2023-05-07T02:58:29;6.60;;;4.77;;
11582;SDS011;34299;50.820;4.548;2023-05-07T03:00:56;8.97;;;4.07;;
11582;SDS011;34299;50.820;4.548;2023-05-07T03:03:25;8.70;;;4.57;;
11582;SDS011;34299;50.820;4.548;2023-05-07T03:05:54;4.90;;;3.87;;
11582;SDS011;34299;50.820;4.548;2023-05-07T03:08:22;8.63;;;4.07;;
11582;SDS011;34299;50.820;4.548;2023-05-07T03:10:50;7.13;;;4.43;;
11582;SDS011;34299;50.820;4.548;2023-05-07T03:13:17;10.13;;;5.27;;
11582;SDS011;34299;50.820;4.548;2023-05-07T03:15:44;7.07;;;4.37;;
11582;SDS011;34299;50.820;4.548;2023-05-07T03:18:11;6.53;;;4.50;;
11582;SDS011;34299;50.820;4.548;2023-05-07T03:20:39;6.33;;;4.40;;
11582;SDS011;34299;50.820;4.548;2023-05-07T03:23:07;9.30;;;4.77;;
11582;SDS011;34299;50.820;4.548;2023-05-07T03:25:34;11.67;;;4.27;;
11582;SDS011;34299;50.820;4.548;2023-05-07T03:28:01;11.27;;;4.70;;
11582;SDS011;34299;50.820;4.548;2023-05-07T03:30:29;7.47;;;4.40;;
11582;SDS011;34299;50.820;4.548;2023-05-07T03:32:56;7.87;;;4.70;;
11582;SDS011;34299;50.820;4.548;2023-05-07T03:35:23;7.80;;;4.23;;
11582;SDS011;34299;50.820;4.548;2023-05-07T03:37:51;5.90;;;4.07;;
11582;SDS011;34299;50.820;4.548;2023-05-07T03:40:19;6.80;;;4.63;;
11582;SDS011;34299;50.820;4.548;2023-05-07T03:42:46;7.63;;;4.60;;
11582;SDS011;34299;50.820;4.548;2023-05-07T03:45:14;6.43;;;4.23;;
11582;SDS011;34299;50.820;4.548;2023-05-07T03:47:41;6.07;;;4.20;;
11582;SDS011;34299;50.820;4.548;2023-05-07T03:50:08;8.87;;;4.03;;
11582;SDS011;34299;50.820;4.548;2023-05-07T03:52:36;7.23;;;4.20;;
11582;SDS011;34299;50.820;4.548;2023-05-07T03:55:04;5.80;;;4.13;;
11582;SDS011;34299;50.820;4.548;2023-05-07T03:57:32;9.67;;;4.80;;
11582;SDS011;34299;50.820;4.548;2023-05-07T03:59:59;6.40;;;4.43;;
11582;SDS011;34299;50.820;4.548;2023-05-07T04:02:29;7.53;;;4.20;;
11582;SDS011;34299;50.820;4.548;2023-05-07T04:04:56;8.53;;;4.23;;
11582;SDS011;34299;50.820;4.548;2023-05-07T04:07:23;7.20;;;3.87;;
11582;SDS011;34299;50.820;4.548;2023-05-07T04:09:51;8.20;;;4.43;;
11582;SDS011;34299;50.820;4.548;2023-05-07T04:12:18;6.63;;;4.10;;
11582;SDS011;34299;50.820;4.548;2023-05-07T04:14:46;7.17;;;4.00;;
11582;SDS011;34299;50.820;4.548;2023-05-07T04:17:13;5.63;;;4.40;;
11582;SDS011;34299;50.820;4.548;2023-05-07T04:19:41;5.63;;;3.80;;
11582;SDS011;34299;50.820;4.548;2023-05-07T04:22:10;10.33;;;4.40;;
11582;SDS011;34299;50.820;4.548;2023-05-07T04:24:37;5.57;;;4.17;;
11582;SDS011;34299;50.820;4.548;2023-05-07T04:27:05;6.07;;;3.90;;
11582;SDS011;34299;50.820;4.548;2023-05-07T04:29:32;7.97;;;4.37;;
11582;SDS011;34299;50.820;4.548;2023-05-07T04:32:01;6.97;;;4.17;;
11582;SDS011;34299;50.820;4.548;2023-05-07T04:34:28;7.77;;;4.30;;
11582;SDS011;34299;50.820;4.548;2023-05-07T04:36:58;6.90;;;4.17;;
11582;SDS011;34299;50.820;4.548;2023-05-07T04:39:25;6.03;;;4.13;;
11582;SDS011;34299;50.820;4.548;2023-05-07T04:41:53;9.70;;;4.20;;
11582;SDS011;34299;50.820;4.548;2023-05-07T04:44:20;7.43;;;4.43;;
11582;SDS011;34299;50.820;4.548;2023-05-07T04:46:47;9.00;;;4.60;;
11582;SDS011;34299;50.820;4.548;2023-05-07T04:49:16;6.37;;;4.17;;
11582;SDS011;34299;50.820;4.548;2023-05-07T04:51:43;5.03;;;4.00;;
11582;SDS011;34299;50.820;4.548;2023-05-07T04:54:11;8.73;;;4.43;;
11582;SDS011;34299;50.820;4.548;2023-05-07T04:56:38;6.03;;;4.13;;
11582;SDS011;34299;50.820;4.548;2023-05-07T04:59:05;7.50;;;4.70;;
11582;SDS011;34299;50.820;4.548;2023-05-07T05:01:32;8.63;;;4.53;;
11582;SDS011;34299;50.820;4.548;2023-05-07T05:04:00;6.43;;;4.37;;
11582;SDS011;34299;50.820;4.548;2023-05-07T05:06:28;6.97;;;4.57;;
11582;SDS011;34299;50.820;4.548;2023-05-07T05:08:56;7.43;;;4.17;;
11582;SDS011;34299;50.820;4.548;2023-05-07T05:11:23;7.50;;;4.20;;
11582;SDS011;34299;50.820;4.548;2023-05-07T05:13:50;7.90;;;4.60;;
11582;SDS011;34299;50.820;4.548;2023-05-07T05:16:18;7.73;;;4.30;;
11582;SDS011;34299;50.820;4.548;2023-05-07T05:18:45;8.20;;;4.43;;
11582;SDS011;34299;50.820;4.548;2023-05-07T05:21:12;6.97;;;4.60;;
11582;SDS011;34299;50.820;4.548;2023-05-07T05:23:41;8.50;;;4.53;;
11582;SDS011;34299;50.820;4.548;2023-05-07T05:26:08;7.03;;;4.73;;
11582;SDS011;34299;50.820;4.548;2023-05-07T05:28:35;7.87;;;4.70;;
11582;SDS011;34299;50.820;4.548;2023-05-07T05:31:02;7.30;;;4.30;;
11582;SDS011;34299;50.820;4.548;2023-05-07T05:33:30;6.23;;;4.53;;
11582;SDS011;34299;50.820;4.548;2023-05-07T05:35:57;9.20;;;4.60;;
11582;SDS011;34299;50.820;4.548;2023-05-07T05:38:24;8.67;;;4.93;;
11582;SDS011;34299;50.820;4.548;2023-05-07T05:40:53;12.40;;;5.17;;
11582;SDS011;34299;50.820;4.548;2023-05-07T05:43:20;8.67;;;4.70;;
11582;SDS011;34299;50.820;4.548;2023-05-07T05:45:47;10.37;;;4.90;;
11582;SDS011;34299;50.820;4.548;2023-05-07T05:48:14;6.93;;;4.83;;
11582;SDS011;34299;50.820;4.548;2023-05-07T05:50:42;7.60;;;4.50;;
11582;SDS011;34299;50.820;4.548;2023-05-07T05:53:09;7.90;;;4.53;;
11582;SDS011;34299;50.820;4.548;2023-05-07T05:55:36;5.73;;;4.17;;
11582;SDS011;34299;50.820;4.548;2023-05-07T05:58:05;7.63;;;4.70;;
11582;SDS011;34299;50.820;4.548;2023-05-07T06:00:32;8.23;;;4.27;;
11582;SDS011;34299;50.820;4.548;2023-05-07T06:03:00;8.20;;;4.30;;
11582;SDS011;34299;50.820;4.548;2023-05-07T06:05:27;6.43;;;4.37;;
11582;SDS011;34299;50.820;4.548;2023-05-07T06:07:54;8.33;;;7.17;;
11582;SDS011;34299;50.820;4.548;2023-05-07T06:10:21;9.80;;;4.60;;
11582;SDS011;34299;50.820;4.548;2023-05-07T06:12:49;5.67;;;4.30;;
11582;SDS011;34299;50.820;4.548;2023-05-07T06:15:18;10.27;;;4.20;;
11582;SDS011;34299;50.820;4.548;2023-05-07T06:17:45;7.37;;;4.20;;
11582;SDS011;34299;50.820;4.548;2023-05-07T06:20:14;7.90;;;4.10;;
11582;SDS011;34299;50.820;4.548;2023-05-07T06:22:41;7.00;;;5.47;;
11582;SDS011;34299;50.820;4.548;2023-05-07T06:25:08;6.13;;;4.73;;
11582;SDS011;34299;50.820;4.548;2023-05-07T06:27:36;9.23;;;4.77;;
11582;SDS011;34299;50.820;4.548;2023-05-07T06:30:05;8.23;;;4.20;;
11582;SDS011;34299;50.820;4.548;2023-05-07T06:32:34;9.17;;;4.07;;
11582;SDS011;34299;50.820;4.548;2023-05-07T06:35:01;5.43;;;3.60;;
11582;SDS011;34299;50.820;4.548;2023-05-07T06:37:28;4.87;;;3.03;;
11582;SDS011;34299;50.820;4.548;2023-05-07T06:39:55;3.60;;;2.90;;
11582;SDS011;34299;50.820;4.548;2023-05-07T06:42:22;5.30;;;2.63;;
11582;SDS011;34299;50.820;4.548;2023-05-07T06:44:49;6.30;;;3.20;;
11582;SDS011;34299;50.820;4.548;2023-05-07T06:47:17;6.33;;;2.77;;
11582;SDS011;34299;50.820;4.548;2023-05-07T06:49:46;5.93;;;2.60;;
11582;SDS011;34299;50.820;4.548;2023-05-07T06:52:13;3.93;;;2.37;;
11582;SDS011;34299;50.820;4.548;2023-05-07T06:54:40;4.97;;;2.70;;
11582;SDS011;34299;50.820;4.548;2023-05-07T06:57:07;4.67;;;2.30;;
11582;SDS011;34299;50.820;4.548;2023-05-07T06:59:34;7.13;;;3.17;;
11582;SDS011;34299;50.820;4.548;2023-05-07T07:02:01;3.80;;;2.40;;
11582;SDS011;34299;50.820;4.548;2023-05-07T07:04:29;6.57;;;2.93;;
11582;SDS011;34299;50.820;4.548;2023-05-07T07:06:57;6.80;;;2.63;;
11582;SDS011;34299;50.820;4.548;2023-05-07T07:09:24;7.17;;;3.00;;
11582;SDS011;34299;50.820;4.548;2023-05-07T07:11:52;3.20;;;2.50;;
11582;SDS011;34299;50.820;4.548;2023-05-07T07:14:19;6.03;;;3.27;;
11582;SDS011;34299;50.820;4.548;2023-05-07T07:16:46;3.60;;;2.77;;
11582;SDS011;34299;50.820;4.548;2023-05-07T07:19:13;9.07;;;3.50;;
11582;SDS011;34299;50.820;4.548;2023-05-07T07:21:41;4.27;;;3.00;;
11582;SDS011;34299;50.820;4.548;2023-05-07T07:24:09;4.87;;;3.10;;
11582;SDS011;34299;50.820;4.548;2023-05-07T07:26:37;4.97;;;3.30;;
11582;SDS011;34299;50.820;4.548;2023-05-07T07:29:05;7.77;;;3.17;;
11582;SDS011;34299;50.820;4.548;2023-05-07T07:31:32;5.47;;;3.00;;
11582;SDS011;34299;50.820;4.548;2023-05-07T07:34:00;4.93;;;2.90;;
11582;SDS011;34299;50.820;4.548;2023-05-07T07:36:27;4.20;;;2.70;;
11582;SDS011;34299;50.820;4.548;2023-05-07T07:38:55;4.50;;;2.47;;
11582;SDS011;34299;50.820;4.548;2023-05-07T07:41:23;3.93;;;2.40;;
11582;SDS011;34299;50.820;4.548;2023-05-07T07:43:51;3.50;;;2.33;;
11582;SDS011;34299;50.820;4.548;2023-05-07T07:46:18;5.37;;;2.90;;
11582;SDS011;34299;50.820;4.548;2023-05-07T07:48:45;4.40;;;2.70;;
11582;SDS011;34299;50.820;4.548;2023-05-07T07:51:12;5.50;;;2.93;;
11582;SDS011;34299;50.820;4.548;2023-05-07T07:53:39;6.83;;;2.87;;
11582;SDS011;34299;50.820;4.548;2023-05-07T07:56:07;3.43;;;2.60;;
11582;SDS011;34299;50.820;4.548;2023-05-07T07:58:36;6.43;;;3.13;;
11582;SDS011;34299;50.820;4.548;2023-05-07T08:01:04;5.50;;;2.60;;
11582;SDS011;34299;50.820;4.548;2023-05-07T08:03:31;5.43;;;2.53;;
11582;SDS011;34299;50.820;4.548;2023-05-07T08:05:58;6.13;;;3.10;;
11582;SDS011;34299;50.820;4.548;2023-05-07T08:08:26;4.67;;;2.60;;
11582;SDS011;34299;50.820;4.548;2023-05-07T08:10:53;8.20;;;3.33;;
11582;SDS011;34299;50.820;4.548;2023-05-07T08:13:20;4.47;;;2.50;;
11582;SDS011;34299;50.820;4.548;2023-05-07T08:15:49;5.53;;;2.87;;
11582;SDS011;34299;50.820;4.548;2023-05-07T08:18:16;4.97;;;2.97;;
11582;SDS011;34299;50.820;4.548;2023-05-07T08:20:43;4.43;;;2.80;;
11582;SDS011;34299;50.820;4.548;2023-05-07T08:23:10;3.13;;;2.53;;
11582;SDS011;34299;50.820;4.548;2023-05-07T08:25:37;5.93;;;2.70;;
11582;SDS011;34299;50.820;4.548;2023-05-07T08:28:05;5.47;;;3.00;;
11582;SDS011;34299;50.820;4.548;2023-05-07T08:30:32;3.57;;;2.60;;
11582;SDS011;34299;50.820;4.548;2023-05-07T08:33:00;6.03;;;3.10;;
11582;SDS011;34299;50.820;4.548;2023-05-07T08:35:28;4.87;;;2.70;;
11582;SDS011;34299;50.820;4.548;2023-05-07T08:37:56;4.43;;;2.70;;
11582;SDS011;34299;50.820;4.548;2023-05-07T08:40:24;3.27;;;2.20;;
11582;SDS011;34299;50.820;4.548;2023-05-07T08:42:52;3.63;;;3.10;;
11582;SDS011;34299;50.820;4.548;2023-05-07T08:45:20;4.47;;;2.43;;
11582;SDS011;34299;50.820;4.548;2023-05-07T08:47:48;8.17;;;2.83;;
11582;SDS011;34299;50.820;4.548;2023-05-07T08:50:19;6.13;;;2.80;;
11582;SDS011;34299;50.820;4.548;2023-05-07T08:52:47;5.27;;;3.43;;
11582;SDS011;34299;50.820;4.548;2023-05-07T08:55:14;5.00;;;2.93;;
11582;SDS011;34299;50.820;4.548;2023-05-07T08:57:41;3.60;;;2.70;;
11582;SDS011;34299;50.820;4.548;2023-05-07T09:00:09;3.43;;;2.67;;
11582;SDS011;34299;50.820;4.548;2023-05-07T09:02:37;3.77;;;2.40;;
11582;SDS011;34299;50.820;4.548;2023-05-07T09:05:04;3.20;;;2.40;;
11582;SDS011;34299;50.820;4.548;2023-05-07T09:07:33;3.83;;;2.37;;
11582;SDS011;34299;50.820;4.548;2023-05-07T09:10:01;2.93;;;2.13;;
11582;SDS011;34299;50.820;4.548;2023-05-07T09:12:29;4.80;;;2.33;;
11582;SDS011;34299;50.820;4.548;2023-05-07T09:14:56;3.80;;;2.00;;
11582;SDS011;34299;50.820;4.548;2023-05-07T09:17:23;4.10;;;2.27;;
11582;SDS011;34299;50.820;4.548;2023-05-07T09:19:51;5.37;;;2.20;;
11582;SDS011;34299;50.820;4.548;2023-05-07T09:22:18;4.63;;;2.60;;
11582;SDS011;34299;50.820;4.548;2023-05-07T09:24:48;3.73;;;2.20;;
11582;SDS011;34299;50.820;4.548;2023-05-07T09:27:17;3.40;;;2.23;;
11582;SDS011;34299;50.820;4.548;2023-05-07T09:29:44;5.40;;;2.20;;
11582;SDS011;34299;50.820;4.548;2023-05-07T09:32:11;4.10;;;2.07;;
11582;SDS011;34299;50.820;4.548;2023-05-07T09:34:38;3.80;;;2.33;;
11582;SDS011;34299;50.820;4.548;2023-05-07T09:37:06;4.90;;;2.10;;
11582;SDS011;34299;50.820;4.548;2023-05-07T09:39:40;5.47;;;2.30;;
11582;SDS011;34299;50.820;4.548;2023-05-07T09:42:08;3.93;;;2.00;;
11582;SDS011;34299;50.820;4.548;2023-05-07T09:44:36;2.40;;;2.03;;
11582;SDS011;34299;50.820;4.548;2023-05-07T09:47:04;8.40;;;2.40;;
11582;SDS011;34299;50.820;4.548;2023-05-07T09:49:33;4.27;;;2.60;;
11582;SDS011;34299;50.820;4.548;2023-05-07T09:52:02;5.83;;;2.20;;
11582;SDS011;34299;50.820;4.548;2023-05-07T09:54:31;5.30;;;2.33;;
11582;SDS011;34299;50.820;4.548;2023-05-07T09:56:58;8.90;;;3.23;;
11582;SDS011;34299;50.820;4.548;2023-05-07T09:59:28;3.53;;;2.47;;
11582;SDS011;34299;50.820;4.548;2023-05-07T10:01:56;4.97;;;2.20;;
11582;SDS011;34299;50.820;4.548;2023-05-07T10:04:24;5.53;;;2.57;;
11582;SDS011;34299;50.820;4.548;2023-05-07T10:06:52;3.87;;;2.20;;
11582;SDS011;34299;50.820;4.548;2023-05-07T10:09:20;4.27;;;2.53;;
11582;SDS011;34299;50.820;4.548;2023-05-07T10:11:48;5.20;;;2.27;;
11582;SDS011;34299;50.820;4.548;2023-05-07T10:14:15;3.73;;;2.20;;
11582;SDS011;34299;50.820;4.548;2023-05-07T10:16:44;2.33;;;1.87;;
11582;SDS011;34299;50.820;4.548;2023-05-07T10:19:11;3.20;;;2.20;;
11582;SDS011;34299;50.820;4.548;2023-05-07T10:21:39;3.17;;;1.93;;
11582;SDS011;34299;50.820;4.548;2023-05-07T10:24:08;3.23;;;1.80;;
11582;SDS011;34299;50.820;4.548;2023-05-07T10:26:39;3.80;;;1.80;;
11582;SDS011;34299;50.820;4.548;2023-05-07T10:29:10;6.07;;;1.90;;
11582;SDS011;34299;50.820;4.548;2023-05-07T10:31:50;2.30;;;1.77;;
11582;SDS011;34299;50.820;4.548;2023-05-07T10:34:24;4.30;;;2.03;;
11582;SDS011;34299;50.820;4.548;2023-05-07T10:36:53;2.87;;;2.17;;
11582;SDS011;34299;50.820;4.548;2023-05-07T10:39:21;5.37;;;1.97;;
11582;SDS011;34299;50.820;4.548;2023-05-07T10:41:48;1.63;;;1.53;;
11582;SDS011;34299;50.820;4.548;2023-05-07T10:44:25;2.57;;;2.37;;
11582;SDS011;34299;50.820;4.548;2023-05-07T10:47:07;2.30;;;2.07;;
11582;SDS011;34299;50.820;4.548;2023-05-07T10:49:35;2.73;;;2.17;;
11582;SDS011;34299;50.820;4.548;2023-05-07T10:52:13;1.87;;;1.57;;
11582;SDS011;34299;50.820;4.548;2023-05-07T10:54:40;4.07;;;2.37;;
11582;SDS011;34299;50.820;4.548;2023-05-07T11:00:02;4.07;;;1.70;;
11582;SDS011;34299;50.820;4.548;2023-05-07T11:05:20;3.10;;;1.60;;
11582;SDS011;34299;50.820;4.548;2023-05-07T11:07:53;1.90;;;1.50;;
11582;SDS011;34299;50.820;4.548;2023-05-07T11:10:21;3.33;;;1.57;;
11582;SDS011;34299;50.820;4.548;2023-05-07T11:15:34;2.33;;;1.60;;
11582;SDS011;34299;50.820;4.548;2023-05-07T11:18:02;3.13;;;1.63;;
11582;SDS011;34299;50.820;4.548;2023-05-07T11:26:13;2.13;;;1.90;;
11582;SDS011;34299;50.820;4.548;2023-05-07T11:28:41;2.07;;;1.87;;
11582;SDS011;34299;50.820;4.548;2023-05-07T11:31:09;3.20;;;2.17;;
11582;SDS011;34299;50.820;4.548;2023-05-07T11:33:37;3.40;;;1.80;;
11582;SDS011;34299;50.820;4.548;2023-05-07T11:36:05;2.20;;;2.00;;
11582;SDS011;34299;50.820;4.548;2023-05-07T11:38:34;2.30;;;1.67;;
11582;SDS011;34299;50.820;4.548;2023-05-07T11:41:02;4.33;;;1.83;;
11582;SDS011;34299;50.820;4.548;2023-05-07T11:43:31;3.53;;;1.90;;
11582;SDS011;34299;50.820;4.548;2023-05-07T11:46:08;2.37;;;1.80;;
11582;SDS011;34299;50.820;4.548;2023-05-07T11:48:35;3.17;;;2.10;;
11582;SDS011;34299;50.820;4.548;2023-05-07T11:51:03;2.90;;;1.83;;
11582;SDS011;34299;50.820;4.548;2023-05-07T11:53:35;2.63;;;1.70;;
11582;SDS011;34299;50.820;4.548;2023-05-07T11:56:05;2.67;;;1.80;;
11582;SDS011;34299;50.820;4.548;2023-05-07T11:58:34;2.17;;;1.50;;
11582;SDS011;34299;50.820;4.548;2023-05-07T12:01:02;2.33;;;1.60;;
11582;SDS011;34299;50.820;4.548;2023-05-07T12:03:29;5.50;;;1.40;;
11582;SDS011;34299;50.820;4.548;2023-05-07T12:05:56;3.77;;;1.60;;
11582;SDS011;34299;50.820;4.548;2023-05-07T12:08:23;2.27;;;1.60;;
11582;SDS011;34299;50.820;4.548;2023-05-07T12:10:51;3.33;;;1.70;;
11582;SDS011;34299;50.820;4.548;2023-05-07T12:13:18;2.90;;;1.73;;
11582;SDS011;34299;50.820;4.548;2023-05-07T12:15:47;2.33;;;1.63;;
11582;SDS011;34299;50.820;4.548;2023-05-07T12:18:17;3.77;;;1.90;;
11582;SDS011;34299;50.820;4.548;2023-05-07T12:20:44;3.80;;;1.63;;
11582;SDS011;34299;50.820;4.548;2023-05-07T12:23:12;4.33;;;2.10;;
11582;SDS011;34299;50.820;4.548;2023-05-07T12:25:40;2.97;;;1.77;;
11582;SDS011;34299;50.820;4.548;2023-05-07T12:28:12;2.57;;;1.60;;
11582;SDS011;34299;50.820;4.548;2023-05-07T12:30:39;2.60;;;1.93;;
11582;SDS011;34299;50.820;4.548;2023-05-07T12:33:08;1.67;;;1.50;;
11582;SDS011;34299;50.820;4.548;2023-05-07T12:35:36;1.67;;;1.57;;
11582;SDS011;34299;50.820;4.548;2023-05-07T12:38:06;4.33;;;1.50;;
11582;SDS011;34299;50.820;4.548;2023-05-07T12:40:37;2.70;;;1.60;;
11582;SDS011;34299;50.820;4.548;2023-05-07T12:43:05;3.37;;;1.60;;
11582;SDS011;34299;50.820;4.548;2023-05-07T12:45:35;2.13;;;1.50;;
11582;SDS011;34299;50.820;4.548;2023-05-07T12:48:03;2.37;;;1.50;;
11582;SDS011;34299;50.820;4.548;2023-05-07T12:50:32;2.77;;;1.20;;
11582;SDS011;34299;50.820;4.548;2023-05-07T12:53:00;1.47;;;1.37;;
11582;SDS011;34299;50.820;4.548;2023-05-07T12:55:28;2.00;;;1.80;;
11582;SDS011;34299;50.820;4.548;2023-05-07T12:57:55;2.27;;;1.70;;
11582;SDS011;34299;50.820;4.548;2023-05-07T13:00:33;3.77;;;1.70;;
11582;SDS011;34299;50.820;4.548;2023-05-07T13:03:00;1.93;;;1.70;;
11582;SDS011;34299;50.820;4.548;2023-05-07T13:05:27;2.37;;;1.80;;
11582;SDS011;34299;50.820;4.548;2023-05-07T13:07:56;1.80;;;1.70;;
11582;SDS011;34299;50.820;4.548;2023-05-07T13:10:23;2.37;;;1.43;;
11582;SDS011;34299;50.820;4.548;2023-05-07T13:12:51;3.37;;;2.10;;
11582;SDS011;34299;50.820;4.548;2023-05-07T13:15:18;2.57;;;2.00;;
11582;SDS011;34299;50.820;4.548;2023-05-07T13:17:47;3.60;;;2.10;;
11582;SDS011;34299;50.820;4.548;2023-05-07T13:20:15;2.53;;;1.97;;
11582;SDS011;34299;50.820;4.548;2023-05-07T13:22:42;3.17;;;2.03;;
11582;SDS011;34299;50.820;4.548;2023-05-07T13:25:10;4.20;;;2.60;;
11582;SDS011;34299;50.820;4.548;2023-05-07T13:27:38;3.30;;;1.87;;
11582;SDS011;34299;50.820;4.548;2023-05-07T13:30:05;3.70;;;2.17;;
11582;SDS011;34299;50.820;4.548;2023-05-07T13:32:33;2.10;;;1.73;;
11582;SDS011;34299;50.820;4.548;2023-05-07T13:35:00;3.23;;;1.70;;
11582;SDS011;34299;50.820;4.548;2023-05-07T13:37:28;3.33;;;1.83;;
11582;SDS011;34299;50.820;4.548;2023-05-07T13:39:55;2.40;;;1.90;;
11582;SDS011;34299;50.820;4.548;2023-05-07T13:42:24;2.73;;;2.00;;
11582;SDS011;34299;50.820;4.548;2023-05-07T13:44:51;4.27;;;2.17;;
11582;SDS011;34299;50.820;4.548;2023-05-07T13:47:18;3.10;;;2.10;;
11582;SDS011;34299;50.820;4.548;2023-05-07T13:49:45;4.03;;;2.50;;
11582;SDS011;34299;50.820;4.548;2023-05-07T13:52:14;2.23;;;1.87;;
11582;SDS011;34299;50.820;4.548;2023-05-07T13:54:41;3.07;;;2.20;;
11582;SDS011;34299;50.820;4.548;2023-05-07T13:57:09;1.70;;;1.60;;
11582;SDS011;34299;50.820;4.548;2023-05-07T13:59:37;2.87;;;2.00;;
11582;SDS011;34299;50.820;4.548;2023-05-07T14:02:05;4.20;;;2.13;;
11582;SDS011;34299;50.820;4.548;2023-05-07T14:04:34;3.03;;;2.10;;
11582;SDS011;34299;50.820;4.548;2023-05-07T14:07:01;2.30;;;2.10;;
11582;SDS011;34299;50.820;4.548;2023-05-07T14:09:28;3.63;;;2.43;;
11582;SDS011;34299;50.820;4.548;2023-05-07T14:11:55;2.70;;;2.50;;
11582;SDS011;34299;50.820;4.548;2023-05-07T14:14:23;2.97;;;2.50;;
11582;SDS011;34299;50.820;4.548;2023-05-07T14:16:51;7.27;;;2.57;;
11582;SDS011;34299;50.820;4.548;2023-05-07T14:19:19;3.10;;;2.20;;
11582;SDS011;34299;50.820;4.548;2023-05-07T14:21:47;3.03;;;2.57;;
11582;SDS011;34299;50.820;4.548;2023-05-07T14:24:15;3.47;;;2.87;;
11582;SDS011;34299;50.820;4.548;2023-05-07T14:26:42;4.13;;;2.77;;
11582;SDS011;34299;50.820;4.548;2023-05-07T14:29:10;4.80;;;3.30;;
11582;SDS011;34299;50.820;4.548;2023-05-07T14:31:37;4.47;;;2.87;;
11582;SDS011;34299;50.820;4.548;2023-05-07T14:34:06;4.33;;;3.07;;
11582;SDS011;34299;50.820;4.548;2023-05-07T14:36:33;3.33;;;3.03;;
11582;SDS011;34299;50.820;4.548;2023-05-07T14:39:00;3.30;;;3.00;;
11582;SDS011;34299;50.820;4.548;2023-05-07T14:41:27;4.20;;;3.10;;
11582;SDS011;34299;50.820;4.548;2023-05-07T14:43:54;3.97;;;2.70;;
11582;SDS011;34299;50.820;4.548;2023-05-07T14:46:24;5.23;;;2.90;;
11582;SDS011;34299;50.820;4.548;2023-05-07T14:48:51;3.37;;;2.93;;
11582;SDS011;34299;50.820;4.548;2023-05-07T14:51:20;6.30;;;3.40;;
11582;SDS011;34299;50.820;4.548;2023-05-07T14:53:49;4.77;;;4.00;;
11582;SDS011;34299;50.820;4.548;2023-05-07T14:56:17;4.33;;;3.93;;
11582;SDS011;34299;50.820;4.548;2023-05-07T14:58:45;7.90;;;3.97;;
11582;SDS011;34299;50.820;4.548;2023-05-07T15:01:14;5.13;;;4.13;;
11582;SDS011;34299;50.820;4.548;2023-05-07T15:03:41;4.57;;;4.13;;
11582;SDS011;34299;50.820;4.548;2023-05-07T15:06:08;4.93;;;3.83;;